Aviation Digital Data Service (ADDS)

Output produced by METARs form (0811 UTC 29 May 2015)
found at http://www.aviationweather.gov/adds/metars/
 
KSBY 290754Z AUTO 00000KT 10SM CLR 17/16 A3021 RMK AO2 SLP232 T01720161
KSBY 290526Z 2906/3006 00000KT P6SM BKN250 
     FM291000 00000KT P6SM SCT025 BKN250 
     FM291200 15007KT P6SM SCT040 
     FM292300 15003KT P6SM SKC